Grande Sierra Leone — IBOM — position and weather

sailwx.info

Track history (hours):
 
Tides and Currents Weather Stations Pressure Air Temp Water Temp Dewpoint Dewpoint Depression Visibility Wind Speed Wind Dir Waves Ship Positions

Grande Sierra Leone

Last reported at 2018-Feb-02 17:40 UTC. Time now 2018-Feb-20 05:38 UTC.
Position S 05°47' E 011°22'.
Warning: this ship's position is 17 days out of date.

Length 212 m; draft 8.3 m.

Type: Cargo ship. MMSI: 247310400.

Date/timePositionNaut miles runAvg speedWind from/ knotsBaromVisibWave heightAir tempDewpointWater temp
2018-Feb-02 17:40S 05°47' E 011°22'316.7
2018-Feb-02 17:30S 05°45' E 011°20'816.4
2018-Feb-02 16:59S 05°36' E 011°19'816.6
2018-Feb-02 16:30S 05°28' E 011°18'1716.8
2018-Feb-02 15:28S 05°11' E 011°17'1414.8
2018-Feb-02 14:30S 05°02' E 011°29'2 0.1
2018-Feb-01 15:02S 05°02' E 011°30'116.5
2018-Feb-01 15:00S 05°02' E 011°30'2315.4
2018-Feb-01 13:29S 05°04' E 011°07'816.5
2018-Feb-01 12:59S 05°00' E 010°59'  
2018-Jan-28 13:48N 07°45' W 014°12'517.9
2018-Jan-28 13:30N 07°48' W 014°16'918.1
2018-Jan-28 13:00N 07°54' W 014°23'918.0
2018-Jan-28 12:30N 07°59' W 014°30'918.2
2018-Jan-28 12:01N 08°05' W 014°37'918.2
2018-Jan-28 11:30N 08°11' W 014°44'918.4
2018-Jan-28 11:01N 08°16' W 014°51'918.4
2018-Jan-28 10:30N 08°22' W 014°59'918.2
2018-Jan-28 10:00N 08°28' W 015°06'918.2
2018-Jan-28 09:30N 08°33' W 015°13'918.2
2018-Jan-28 08:59N 08°39' W 015°21'918.1
2018-Jan-28 08:28N 08°45' W 015°28'817.7
2018-Jan-28 08:01N 08°50' W 015°35'917.8
2018-Jan-28 07:30N 08°56' W 015°42'917.8
2018-Jan-28 07:00N 09°02' W 015°48'917.4
2018-Jan-28 06:30N 09°07' W 015°55'  
2018-Jan-23 22:40N 23°04' W 017°29'416.8
2018-Jan-23 22:26N 23°07' W 017°28'  
Track history (hours):
 
Tides and Currents Weather Stations Pressure Air Temp Water Temp Dewpoint Dewpoint Depression Visibility Wind Speed Wind Dir Waves Ship Positions

Grande Sierra Leone

Last reported at 2018-Feb-02 17:40 UTC. Time now 2018-Feb-20 05:38 UTC.
Position S 05°47' E 011°22'.
Warning: this ship's position is 17 days out of date.

Length 212 m; draft 8.3 m.

Type: Cargo ship. MMSI: 247310400.

Date/timePositionNaut miles runAvg speedWind from/ knotsBaromVisibWave heightAir tempDewpointWater temp
2018-Feb-02 17:40S 05°47' E 011°22'316.7
2018-Feb-02 17:30S 05°45' E 011°20'816.4
2018-Feb-02 16:59S 05°36' E 011°19'816.6
2018-Feb-02 16:30S 05°28' E 011°18'1716.8
2018-Feb-02 15:28S 05°11' E 011°17'1414.8
2018-Feb-02 14:30S 05°02' E 011°29'2 0.1
2018-Feb-01 15:02S 05°02' E 011°30'116.5
2018-Feb-01 15:00S 05°02' E 011°30'2315.4
2018-Feb-01 13:29S 05°04' E 011°07'816.5
2018-Feb-01 12:59S 05°00' E 010°59'  
2018-Jan-28 13:48N 07°45' W 014°12'517.9
2018-Jan-28 13:30N 07°48' W 014°16'918.1
2018-Jan-28 13:00N 07°54' W 014°23'918.0
2018-Jan-28 12:30N 07°59' W 014°30'918.2
2018-Jan-28 12:01N 08°05' W 014°37'918.2
2018-Jan-28 11:30N 08°11' W 014°44'918.4
2018-Jan-28 11:01N 08°16' W 014°51'918.4
2018-Jan-28 10:30N 08°22' W 014°59'918.2
2018-Jan-28 10:00N 08°28' W 015°06'918.2
2018-Jan-28 09:30N 08°33' W 015°13'918.2
2018-Jan-28 08:59N 08°39' W 015°21'918.1
2018-Jan-28 08:28N 08°45' W 015°28'817.7
2018-Jan-28 08:01N 08°50' W 015°35'917.8
2018-Jan-28 07:30N 08°56' W 015°42'917.8
2018-Jan-28 07:00N 09°02' W 015°48'917.4
2018-Jan-28 06:30N 09°07' W 015°55'  
2018-Jan-23 22:40N 23°04' W 017°29'416.8
2018-Jan-23 22:26N 23°07' W 017°28'  

Dump ship's entire track history